Time;durP1;ratioP1;P1;durP2;ratioP2;P2;SDS_P1;SDS_P2;PMS_P1;PMS_P2;Temp;Humidity;BMP_temperature;BMP_pressure;BME280_temperature;BME280_humidity;BME280_pressure;Samples;Min_cycle;Max_cycle;Signal;HPM_P1;HPM_P2
2022/10/06 00:02:10;;;;;;;3.50;0.60;;;;;;;13.29;75.20;102063.81;5005288;28;20470;-76
2022/10/06 00:04:35;;;;;;;3.72;0.57;;;;;;;13.26;75.38;102071.69;5007198;28;20026;-75
2022/10/06 00:07:00;;;;;;;3.63;0.60;;;;;;;13.20;75.44;102075.28;5005149;28;20021;-76
2022/10/06 00:09:26;;;;;;;2.85;0.60;;;;;;;13.17;75.95;102086.63;5003145;28;20058;-76
2022/10/06 00:11:52;;;;;;;4.47;0.52;;;;;;;13.13;75.84;102092.81;5010010;28;20045;-76
2022/10/06 00:14:18;;;;;;;2.72;0.75;;;;;;;13.11;75.58;102097.19;5011731;28;20568;-76
2022/10/06 00:16:43;;;;;;;3.50;0.75;;;;;;;13.08;75.69;102094.63;5010939;28;20028;-76
2022/10/06 00:19:08;;;;;;;3.30;0.60;;;;;;;13.05;75.19;102099.88;5010484;28;20382;-76
2022/10/06 00:21:33;;;;;;;2.35;0.70;;;;;;;13.03;75.09;102113.00;5009365;28;20080;-76
2022/10/06 00:23:59;;;;;;;3.70;0.73;;;;;;;13.02;75.12;102113.00;5002782;28;20026;-76
2022/10/06 00:26:24;;;;;;;2.53;0.70;;;;;;;13.00;75.00;102117.38;5007618;28;20030;-76
2022/10/06 00:28:49;;;;;;;3.70;0.70;;;;;;;12.99;74.71;102123.47;5005507;28;20034;-76
2022/10/06 00:31:16;;;;;;;3.58;0.70;;;;;;;12.95;74.46;102130.50;5012433;28;20022;-75
2022/10/06 00:33:41;;;;;;;8.73;0.70;;;;;;;12.93;74.64;102120.97;5011127;28;20041;-76
2022/10/06 00:36:07;;;;;;;2.92;0.60;;;;;;;12.89;74.45;102131.47;5004953;28;20034;-76
2022/10/06 00:38:33;;;;;;;4.07;0.80;;;;;;;12.86;74.65;102138.50;5006303;28;20053;-76
2022/10/06 00:40:59;;;;;;;6.07;0.70;;;;;;;12.82;74.48;102136.81;5004778;28;20077;-76
2022/10/06 00:43:42;;;;;;;6.32;0.73;;;;;;;12.82;74.38;102150.72;5009295;28;20029;-75
2022/10/06 00:46:10;;;;;;;4.50;1.00;;;;;;;12.78;74.85;102149.06;5003997;28;20050;-76
2022/10/06 00:48:37;;;;;;;4.28;0.80;;;;;;;12.78;74.66;102153.41;5007443;28;20029;-76
2022/10/06 00:51:03;;;;;;;5.75;0.63;;;;;;;12.75;74.86;102156.94;5005060;28;20026;-76
2022/10/06 00:53:29;;;;;;;5.43;0.80;;;;;;;12.74;74.72;102160.41;5005282;28;20038;-75
2022/10/06 00:55:56;;;;;;;4.63;0.95;;;;;;;12.73;75.05;102161.31;5003728;28;20033;-76
2022/10/06 00:58:21;;;;;;;5.35;0.98;;;;;;;12.72;75.07;102170.03;5005079;28;20119;-75
2022/10/06 01:00:52;;;;;;;5.10;0.73;;;;;;;12.72;75.24;102173.47;5006698;28;20213;-75
2022/10/06 01:03:33;;;;;;;5.28;0.95;;;;;;;12.72;75.55;102167.41;5006701;28;20041;-75
2022/10/06 01:06:01;;;;;;;2.83;0.60;;;;;;;12.71;75.76;102170.91;5003495;28;20029;-75
2022/10/06 01:08:27;;;;;;;5.07;1.00;;;;;;;12.66;76.08;102176.19;5009764;28;20025;-76
2022/10/06 01:10:52;;;;;;;4.88;1.15;;;;;;;12.64;76.22;102172.72;5009187;28;20474;-76
2022/10/06 01:13:18;;;;;;;8.63;1.27;;;;;;;12.62;76.35;102186.69;5009635;28;20042;-76
2022/10/06 01:15:53;;;;;;;3.00;0.65;;;;;;;12.58;76.42;102189.34;5009469;28;20038;-76
2022/10/06 01:18:22;;;;;;;4.93;0.80;;;;;;;12.56;76.35;102192.84;5007514;28;20033;-76
2022/10/06 01:20:54;;;;;;;5.13;0.90;;;;;;;12.53;76.60;102201.59;5009608;28;20022;-75
2022/10/06 01:23:20;;;;;;;5.90;0.70;;;;;;;12.52;76.26;102197.25;5008753;28;20030;-75
2022/10/06 01:25:45;;;;;;;4.82;1.00;;;;;;;12.51;76.33;102199.88;5012068;28;20036;-76
2022/10/06 01:28:12;;;;;;;5.07;0.70;;;;;;;12.51;76.36;102212.94;4992902;28;20030;-76
2022/10/06 01:30:51;;;;;;;4.13;0.90;;;;;;;12.49;76.19;102215.53;5013462;28;20026;-76
2022/10/06 01:33:18;;;;;;;4.97;0.98;;;;;;;12.48;76.30;102219.03;5013690;28;20025;-75
2022/10/06 01:35:49;;;;;;;5.95;1.00;;;;;;;12.47;76.21;102226.91;5012696;28;20037;-76
2022/10/06 01:38:16;;;;;;;4.55;0.88;;;;;;;12.46;76.04;102231.25;5010380;28;20117;-76
2022/10/06 01:40:42;;;;;;;4.85;1.35;;;;;;;12.45;75.94;102229.53;5009598;28;20034;-76
2022/10/06 01:43:07;;;;;;;4.60;1.17;;;;;;;12.43;75.54;102228.69;5011025;28;20053;-76
2022/10/06 01:45:32;;;;;;;5.70;1.30;;;;;;;12.40;75.46;102231.31;5011422;28;20077;-75
2022/10/06 01:47:58;;;;;;;4.70;0.90;;;;;;;12.39;74.83;102240.03;5012545;28;20095;-76
2022/10/06 01:50:23;;;;;;;4.43;1.00;;;;;;;12.37;75.40;102242.66;5012888;28;21768;-76
2022/10/06 01:52:48;;;;;;;5.20;0.80;;;;;;;12.36;75.49;102240.06;5013797;28;20029;-75
2022/10/06 01:55:14;;;;;;;5.50;1.00;;;;;;;12.32;75.26;102238.34;5009821;28;20025;-75
2022/10/06 01:57:40;;;;;;;3.83;0.80;;;;;;;12.29;75.15;102255.81;5009443;28;20105;-76
2022/10/06 02:00:06;;;;;;;4.40;0.75;;;;;;;12.27;75.29;102251.47;5010573;28;20440;-76
2022/10/06 02:02:31;;;;;;;4.47;0.88;;;;;;;12.23;75.25;102250.63;5011577;28;20027;-76
2022/10/06 02:04:57;;;;;;;3.85;0.77;;;;;;;12.21;75.23;102252.38;5010656;28;20034;-76
2022/10/06 02:07:22;;;;;;;8.80;1.30;;;;;;;12.20;75.64;102257.63;5013029;28;20061;-76
2022/10/06 02:09:47;;;;;;;7.43;0.90;;;;;;;12.17;75.59;102255.91;5013260;28;20033;-76
2022/10/06 02:12:12;;;;;;;6.85;0.95;;;;;;;12.16;75.50;102263.75;5012978;28;20172;-76
2022/10/06 02:14:38;;;;;;;6.90;1.33;;;;;;;12.14;75.29;102261.13;5010878;28;20029;-76
2022/10/06 02:17:03;;;;;;;3.88;0.73;;;;;;;12.12;75.58;102268.16;5013253;28;20055;-75
2022/10/06 02:19:28;;;;;;;6.03;1.00;;;;;;;12.11;75.49;102276.84;5011966;28;20492;-76
2022/10/06 02:21:54;;;;;;;11.13;1.20;;;;;;;12.09;75.44;102274.22;5010170;28;20185;-76
2022/10/06 02:24:19;;;;;;;6.78;1.15;;;;;;;12.09;75.26;102289.03;5009065;28;20061;-76
2022/10/06 02:26:44;;;;;;;6.40;0.90;;;;;;;12.06;75.42;102292.50;5008105;28;20036;-75
2022/10/06 02:29:10;;;;;;;7.45;1.05;;;;;;;12.04;75.05;102285.59;5008861;28;20073;-75
2022/10/06 02:31:35;;;;;;;5.18;1.10;;;;;;;12.02;75.05;102295.16;5009886;28;20385;-75
2022/10/06 02:34:01;;;;;;;6.95;0.93;;;;;;;12.00;74.93;102300.41;4994487;28;20040;-75
2022/10/06 02:36:26;;;;;;;4.85;0.80;;;;;;;11.97;74.86;102298.63;5008374;28;20385;-76
2022/10/06 02:38:51;;;;;;;8.35;1.10;;;;;;;11.95;74.99;102303.03;5008104;28;20026;-76
2022/10/06 02:41:17;;;;;;;5.30;1.10;;;;;;;11.93;74.80;102299.56;5007243;28;20034;-75
2022/10/06 02:43:42;;;;;;;6.28;1.02;;;;;;;11.89;74.86;102310.91;5009510;28;20057;-76
2022/10/06 02:46:13;;;;;;;7.63;1.20;;;;;;;11.88;74.88;102319.59;5006824;28;20038;-75
2022/10/06 02:48:39;;;;;;;5.05;1.00;;;;;;;11.86;74.81;102318.72;4996899;28;20044;-76
2022/10/06 02:51:07;;;;;;;5.88;1.08;;;;;;;11.85;74.67;102314.38;5010100;28;20068;-75
2022/10/06 02:53:33;;;;;;;6.20;1.15;;;;;;;11.85;74.80;102322.22;5007386;28;20499;-75
2022/10/06 02:56:00;;;;;;;7.55;1.05;;;;;;;11.83;74.78;102330.06;5005661;28;20120;-75
2022/10/06 02:58:28;;;;;;;8.93;1.00;;;;;;;11.84;74.75;102338.75;5009566;28;20042;-75
2022/10/06 03:00:54;;;;;;;4.72;0.90;;;;;;;11.83;74.85;102342.22;4993555;28;20033;-75
2022/10/06 03:03:20;;;;;;;6.07;1.00;;;;;;;11.82;74.63;102337.88;5012093;28;20029;-75
2022/10/06 03:05:45;;;;;;;5.40;1.10;;;;;;;11.79;74.89;102344.00;5007923;28;20101;-75
2022/10/06 03:08:10;;;;;;;7.18;0.95;;;;;;;11.76;75.06;102340.53;5013302;28;20440;-76
2022/10/06 03:10:36;;;;;;;7.28;1.00;;;;;;;11.73;75.33;102346.63;5009911;28;20478;-75
2022/10/06 03:13:01;;;;;;;9.65;1.00;;;;;;;11.72;75.53;102357.06;5012088;28;20025;-75
2022/10/06 03:15:27;;;;;;;7.03;0.93;;;;;;;11.69;75.02;102358.81;5008690;28;20030;-75
2022/10/06 03:17:52;;;;;;;6.85;1.08;;;;;;;11.68;75.27;102367.53;5011198;28;20389;-76
2022/10/06 03:20:17;;;;;;;7.28;1.30;;;;;;;11.66;75.49;102364.06;5011211;28;20717;-75
2022/10/06 03:22:43;;;;;;;4.97;0.82;;;;;;;11.64;75.68;102371.00;5010451;28;20075;-75
2022/10/06 03:25:08;;;;;;;4.38;0.95;;;;;;;11.61;75.48;102371.06;5011152;28;20022;-75
2022/10/06 03:27:34;;;;;;;7.43;0.88;;;;;;;11.58;75.62;102376.28;5009458;28;20424;-75
2022/10/06 03:29:59;;;;;;;8.30;0.80;;;;;;;11.55;75.86;102373.69;5009367;28;20548;-75
2022/10/06 03:32:24;;;;;;;6.53;1.08;;;;;;;11.54;75.80;102379.75;5010891;28;20481;-75
2022/10/06 03:34:52;;;;;;;5.53;1.15;;;;;;;11.52;75.88;102385.00;5010032;28;20026;-75
2022/10/06 03:37:18;;;;;;;7.93;1.08;;;;;;;11.49;76.11;102378.91;4995016;28;20064;-75
2022/10/06 03:39:43;;;;;;;3.22;0.77;;;;;;;11.46;76.01;102391.94;5007525;28;20073;-76
2022/10/06 03:42:08;;;;;;;6.50;1.13;;;;;;;11.45;76.37;102403.25;5009094;28;20022;-75
2022/10/06 03:44:33;;;;;;;4.90;0.85;;;;;;;11.42;76.22;102406.75;5008453;28;20064;-75
2022/10/06 03:46:59;;;;;;;8.13;1.00;;;;;;;11.38;76.50;102403.28;5005896;28;20054;-76
2022/10/06 03:49:24;;;;;;;8.50;0.85;;;;;;;11.37;76.70;102396.34;5009162;28;20201;-75
2022/10/06 03:51:49;;;;;;;7.45;1.33;;;;;;;11.34;76.65;102404.16;5009877;28;20053;-75
2022/10/06 03:54:15;;;;;;;4.35;1.00;;;;;;;11.31;76.47;102404.16;5009968;28;20080;-75
2022/10/06 03:56:40;;;;;;;6.13;1.00;;;;;;;11.30;76.60;102412.00;5007500;28;20026;-76
2022/10/06 03:59:09;;;;;;;4.03;0.77;;;;;;;11.27;76.73;102420.72;5011175;28;20484;-75
2022/10/06 04:01:35;;;;;;;5.82;1.20;;;;;;;11.25;76.76;102430.28;5009519;28;20393;-75
2022/10/06 04:04:01;;;;;;;8.93;1.92;;;;;;;11.21;76.92;102428.53;5010055;28;20033;-75
2022/10/06 04:06:28;;;;;;;9.40;1.73;;;;;;;11.19;77.10;102435.47;5008002;28;20374;-75
2022/10/06 04:08:55;;;;;;;5.45;1.20;;;;;;;11.16;76.71;102440.69;5008284;28;20034;-76
2022/10/06 04:11:29;;;;;;;5.20;1.50;;;;;;;11.15;77.31;102450.25;5010870;28;20029;-75
2022/10/06 04:13:59;;;;;;;7.18;1.40;;;;;;;11.14;77.31;102450.25;5009777;28;20026;-75
2022/10/06 04:16:39;;;;;;;6.78;1.63;;;;;;;11.14;77.35;102458.06;5009252;28;20105;-75
2022/10/06 04:19:08;;;;;;;7.20;1.48;;;;;;;11.12;77.29;102451.97;5007033;28;20481;-75
2022/10/06 04:21:35;;;;;;;6.40;1.83;;;;;;;11.11;77.26;102461.56;5009645;28;20041;-76
2022/10/06 04:24:01;;;;;;;4.93;1.00;;;;;;;11.07;77.08;102463.31;5008894;28;20033;-75
2022/10/06 04:26:32;;;;;;;9.07;1.10;;;;;;;11.05;77.17;102465.03;5010608;28;20485;-75
2022/10/06 04:28:59;;;;;;;8.73;1.30;;;;;;;11.03;77.18;102464.16;5008194;28;20104;-75
2022/10/06 04:31:27;;;;;;;10.40;1.52;;;;;;;11.02;77.33;102475.44;5011273;28;20022;-75
2022/10/06 04:33:56;;;;;;;6.70;1.80;;;;;;;11.00;77.45;102482.41;5007563;28;20041;-75
2022/10/06 04:36:23;;;;;;;6.35;1.60;;;;;;;10.99;77.30;102480.66;5006187;28;20018;-76
2022/10/06 04:38:55;;;;;;;6.47;1.27;;;;;;;10.98;77.22;102478.06;5008929;28;20489;-76
2022/10/06 04:41:21;;;;;;;5.70;1.30;;;;;;;10.97;77.05;102491.97;5010345;28;20156;-75
2022/10/06 04:43:48;;;;;;;9.50;1.48;;;;;;;10.93;77.33;102488.50;5010453;28;20032;-76
2022/10/06 04:46:15;;;;;;;9.40;1.48;;;;;;;10.91;77.32;102493.69;5009384;28;20057;-75
2022/10/06 04:48:41;;;;;;;8.75;1.13;;;;;;;10.89;77.04;102494.56;5013542;28;20109;-76
2022/10/06 04:51:13;;;;;;;4.65;1.20;;;;;;;10.88;77.42;102492.84;5008313;28;20168;-76
2022/10/06 04:53:39;;;;;;;6.70;1.33;;;;;;;10.85;77.24;102495.44;5007962;28;20029;-75
2022/10/06 04:56:17;;;;;;;4.35;1.10;;;;;;;10.83;76.98;102500.66;5003038;28;20053;-75
2022/10/06 04:58:45;;;;;;;6.55;1.20;;;;;;;10.82;77.14;102508.44;5007487;28;20136;-75
2022/10/06 05:01:19;;;;;;;10.13;1.40;;;;;;;10.79;77.18;102511.94;5008332;28;20030;-75
2022/10/06 05:03:46;;;;;;;6.20;1.20;;;;;;;10.76;77.34;102515.38;5001512;28;20408;-75
2022/10/06 05:06:14;;;;;;;12.93;1.58;;;;;;;10.73;77.12;102520.59;5003733;28;20416;-75
2022/10/06 05:08:40;;;;;;;8.98;1.40;;;;;;;10.71;77.01;102522.34;5004043;28;20030;-75
2022/10/06 05:11:08;;;;;;;5.50;1.13;;;;;;;10.70;76.94;102530.13;5001789;28;20034;-75
2022/10/06 05:13:35;;;;;;;9.18;1.63;;;;;;;10.66;77.26;102534.47;5001400;28;20026;-75
2022/10/06 05:16:02;;;;;;;10.02;1.17;;;;;;;10.65;77.33;102550.94;5007193;28;20029;-74
2022/10/06 05:18:29;;;;;;;7.82;1.13;;;;;;;10.61;77.28;102551.81;5002781;28;20030;-75
2022/10/06 05:21:02;;;;;;;5.22;1.17;;;;;;;10.57;77.08;102550.09;5002694;28;20044;-75
2022/10/06 05:23:29;;;;;;;6.32;1.10;;;;;;;10.54;77.04;102561.34;5004285;28;20030;-75
2022/10/06 05:25:56;;;;;;;7.63;1.10;;;;;;;10.52;77.47;102554.41;5001947;28;20032;-75
2022/10/06 05:28:26;;;;;;;7.40;1.10;;;;;;;10.48;77.42;102559.59;5003354;28;20041;-75
2022/10/06 05:31:10;;;;;;;7.38;1.25;;;;;;;10.47;77.52;102555.25;5005150;28;20113;-75
2022/10/06 05:33:35;;;;;;;10.20;1.27;;;;;;;10.44;77.38;102560.44;5001833;28;20068;-76
2022/10/06 05:36:06;;;;;;;7.55;1.30;;;;;;;10.43;77.36;102571.72;5003723;28;20089;-74
2022/10/06 05:38:33;;;;;;;6.32;1.35;;;;;;;10.41;77.32;102575.19;5004830;28;20099;-75
2022/10/06 05:41:04;;;;;;;8.98;1.33;;;;;;;10.39;77.61;102583.00;5001981;28;20131;-75
2022/10/06 05:43:29;;;;;;;5.47;1.30;;;;;;;10.38;77.65;102585.53;5003468;28;20041;-76
2022/10/06 05:45:57;;;;;;;6.78;1.80;;;;;;;10.34;77.33;102579.47;5007777;28;20050;-74
2022/10/06 05:48:23;;;;;;;7.43;1.90;;;;;;;10.33;77.80;102590.75;5006248;28;20113;-75
2022/10/06 05:51:00;;;;;;;12.55;1.58;;;;;;;10.30;77.58;102596.81;5008794;28;20109;-75
2022/10/06 05:53:28;;;;;;;5.35;1.65;;;;;;;10.28;77.58;102600.25;5008702;28;20077;-76
2022/10/06 05:56:06;;;;;;;7.65;1.38;;;;;;;10.27;77.63;102599.41;5008277;28;20335;-75
2022/10/06 05:58:33;;;;;;;9.63;1.20;;;;;;;10.25;77.84;102608.91;5003372;28;20034;-75
2022/10/06 06:01:15;;;;;;;9.75;1.65;;;;;;;10.24;77.57;102604.59;5008207;28;20462;-75
2022/10/06 06:03:45;;;;;;;8.68;1.50;;;;;;;10.24;77.66;102616.72;5006999;28;20469;-75
2022/10/06 06:06:41;;;;;;;4.97;1.13;;;;;;;10.25;77.58;102621.03;5003928;28;20033;-75
2022/10/06 06:09:13;;;;;;;10.80;1.30;;;;;;;10.23;77.54;102628.84;5008745;28;20046;-75
2022/10/06 06:11:43;;;;;;;5.57;1.27;;;;;;;10.22;77.55;102634.91;5012930;28;20394;-75
2022/10/06 06:14:10;;;;;;;8.02;1.70;;;;;;;10.22;77.43;102626.25;5011117;28;20064;-75
2022/10/06 06:16:37;;;;;;;11.90;2.03;;;;;;;10.23;77.80;102633.19;5010400;28;20120;-75
2022/10/06 06:19:04;;;;;;;11.65;1.90;;;;;;;10.25;77.17;102636.66;5012174;28;20061;-75
2022/10/06 06:21:30;;;;;;;11.27;2.10;;;;;;;10.26;77.51;102638.38;5003898;28;20026;-75
2022/10/06 06:23:56;;;;;;;12.23;2.10;;;;;;;10.25;77.66;102634.94;5013242;28;20105;-76
2022/10/06 06:26:29;;;;;;;8.90;1.70;;;;;;;10.27;77.60;102638.41;5005396;28;20081;-76
2022/10/06 06:29:03;;;;;;;9.20;2.15;;;;;;;10.29;77.49;102646.22;5008702;28;20026;-76
2022/10/06 06:31:36;;;;;;;10.35;1.95;;;;;;;10.29;77.53;102649.69;5013194;28;20022;-76
2022/10/06 06:34:03;;;;;;;7.93;1.80;;;;;;;10.30;77.52;102656.66;5008318;28;20030;-75
2022/10/06 06:36:35;;;;;;;10.27;1.83;;;;;;;10.33;77.69;102653.19;5008389;28;20029;-75
2022/10/06 06:39:04;;;;;;;9.82;1.90;;;;;;;10.32;77.31;102647.13;5013881;28;20033;-75
2022/10/06 06:41:36;;;;;;;8.35;1.80;;;;;;;10.36;77.00;102652.31;5004642;28;20026;-76
2022/10/06 06:44:02;;;;;;;8.95;1.70;;;;;;;10.37;77.27;102654.06;5004341;28;20087;-76
2022/10/06 06:46:31;;;;;;;7.85;1.48;;;;;;;10.39;77.52;102660.16;5004257;28;20046;-75
2022/10/06 06:49:00;;;;;;;8.68;1.50;;;;;;;10.42;77.51;102666.25;5007004;28;20041;-75
2022/10/06 06:51:26;;;;;;;10.60;1.73;;;;;;;10.44;77.31;102672.34;5004771;28;20053;-76
2022/10/06 06:53:52;;;;;;;9.18;1.98;;;;;;;10.46;77.60;102672.34;5008622;28;20540;-75
2022/10/06 06:56:19;;;;;;;13.32;2.00;;;;;;;10.48;77.45;102671.50;5008027;28;20038;-76
2022/10/06 06:58:49;;;;;;;13.43;2.72;;;;;;;10.51;77.44;102680.19;5005543;28;20042;-76
2022/10/06 07:01:16;;;;;;;9.52;1.90;;;;;;;10.53;77.10;102691.47;5007202;28;20469;-75
2022/10/06 07:03:44;;;;;;;11.00;2.10;;;;;;;10.56;77.14;102688.88;5004813;28;20030;-75
2022/10/06 07:06:12;;;;;;;7.50;1.80;;;;;;;10.61;77.20;102694.94;5003903;28;20033;-76
2022/10/06 07:08:43;;;;;;;10.02;1.42;;;;;;;10.65;76.68;102698.47;5006556;28;20124;-76
2022/10/06 07:11:18;;;;;;;8.52;1.73;;;;;;;10.68;76.63;102699.34;5005306;28;20342;-76
2022/10/06 07:13:45;;;;;;;8.25;1.48;;;;;;;10.70;76.59;102699.31;5006444;28;20033;-76
2022/10/06 07:27:09;;;;;;;8.98;1.95;;;;;;;10.87;76.75;102725.44;5008005;28;20810;-75
2022/10/06 07:29:34;;;;;;;8.55;1.67;;;;;;;10.89;77.06;102728.91;5006816;28;20595;-77
2022/10/06 07:32:00;;;;;;;9.18;1.80;;;;;;;10.93;76.75;102739.34;5007750;28;20777;-75
2022/10/06 07:34:26;;;;;;;9.45;1.85;;;;;;;10.95;76.27;102741.94;5004650;28;20045;-75
2022/10/06 07:36:51;;;;;;;10.93;2.30;;;;;;;10.99;76.03;102754.13;5007412;28;20037;-75
2022/10/06 07:39:16;;;;;;;9.43;1.90;;;;;;;11.02;76.17;102761.94;5007105;28;20032;-76
2022/10/06 07:41:42;;;;;;;12.52;1.75;;;;;;;11.07;76.20;102764.56;5007554;28;20088;-76
2022/10/06 07:44:07;;;;;;;13.10;1.88;;;;;;;11.09;75.63;102773.25;5007069;28;20033;-76
2022/10/06 07:46:32;;;;;;;11.55;2.40;;;;;;;11.14;75.67;102775.84;5003958;28;20081;-76
2022/10/06 07:48:58;;;;;;;7.90;2.15;;;;;;;11.18;75.55;102772.41;4989973;28;20477;-76
2022/10/06 07:51:26;;;;;;;8.55;1.42;;;;;;;11.22;75.50;102775.00;5004855;28;20033;-76
2022/10/06 07:53:52;;;;;;;8.93;1.80;;;;;;;11.27;75.38;102780.25;5003746;28;20041;-76
2022/10/06 07:56:21;;;;;;;10.30;1.60;;;;;;;11.32;75.39;102785.47;5006118;28;20034;-76
2022/10/06 07:58:47;;;;;;;8.82;1.55;;;;;;;11.36;75.32;102788.09;5005114;28;20068;-75
2022/10/06 08:01:15;;;;;;;8.13;1.42;;;;;;;11.39;74.65;102785.50;5004695;28;20448;-75
2022/10/06 08:03:42;;;;;;;10.05;1.65;;;;;;;11.44;74.43;102795.06;5003181;28;20499;-75
2022/10/06 08:06:12;;;;;;;9.45;1.58;;;;;;;11.48;74.50;102791.56;5003641;28;20401;-75
2022/10/06 08:08:39;;;;;;;10.38;1.70;;;;;;;11.53;74.96;102800.28;5007650;28;20481;-76
2022/10/06 08:11:06;;;;;;;8.20;1.65;;;;;;;11.57;74.35;102796.81;5002776;28;20125;-76
2022/10/06 08:13:34;;;;;;;10.77;1.70;;;;;;;11.61;75.12;102795.97;5005483;28;20536;-76
2022/10/06 08:16:09;;;;;;;9.73;1.40;;;;;;;11.66;74.52;102795.97;5005301;28;20037;-76
2022/10/06 08:18:35;;;;;;;8.73;2.03;;;;;;;11.72;74.29;102800.31;5003422;28;20033;-76
2022/10/06 08:21:08;;;;;;;8.30;1.80;;;;;;;11.75;74.76;102795.97;5003282;28;20038;-75
2022/10/06 08:23:36;;;;;;;9.63;1.60;;;;;;;11.78;74.34;102801.19;5006352;28;20435;-75
2022/10/06 08:26:01;;;;;;;9.88;1.45;;;;;;;11.82;74.21;102797.72;5004840;28;20133;-76
2022/10/06 08:28:29;;;;;;;8.18;1.67;;;;;;;11.87;74.52;102810.75;5004125;28;20124;-76
2022/10/06 08:30:54;;;;;;;10.82;1.73;;;;;;;11.91;73.69;102817.72;5004120;28;20034;-76
2022/10/06 08:33:19;;;;;;;8.43;1.50;;;;;;;11.95;73.90;102824.69;5006955;28;20029;-76
2022/10/06 08:35:45;;;;;;;10.45;1.73;;;;;;;11.99;73.11;102821.22;5006401;28;20117;-76
2022/10/06 08:38:11;;;;;;;9.98;1.60;;;;;;;12.06;74.11;102821.22;5005428;28;20040;-75
2022/10/06 08:40:36;;;;;;;7.25;1.38;;;;;;;12.11;73.72;102829.94;5004170;28;20030;-76
2022/10/06 08:43:01;;;;;;;7.78;1.80;;;;;;;12.12;71.98;102827.31;4986117;28;20084;-76
2022/10/06 08:45:33;;;;;;;9.13;1.60;;;;;;;12.16;73.04;102837.75;5000448;28;20520;-76
2022/10/06 08:48:12;;;;;;;6.47;1.58;;;;;;;12.21;73.47;102839.50;4999086;28;20060;-75
2022/10/06 08:51:06;;;;;;;9.98;1.30;;;;;;;12.26;72.94;102831.66;4983260;28;20481;-75
2022/10/06 08:53:38;;;;;;;11.63;1.42;;;;;;;12.29;72.88;102845.59;5000293;28;20044;-76
2022/10/06 08:56:06;;;;;;;11.77;1.67;;;;;;;12.35;72.54;102849.03;5001646;28;20363;-76
2022/10/06 08:58:43;;;;;;;7.07;1.45;;;;;;;12.39;72.17;102856.84;5003015;28;20057;-76
2022/10/06 09:01:23;;;;;;;9.57;1.70;;;;;;;12.44;72.22;102851.66;5002158;28;20060;-76
2022/10/06 09:03:52;;;;;;;6.13;1.58;;;;;;;12.47;71.27;102859.47;5000728;28;20034;-75
2022/10/06 09:06:32;;;;;;;9.27;1.70;;;;;;;12.52;72.78;102849.88;5000493;28;20109;-76
2022/10/06 09:09:06;;;;;;;13.23;1.73;;;;;;;12.56;73.11;102853.34;5001350;28;20034;-76
2022/10/06 09:11:45;;;;;;;5.93;1.42;;;;;;;12.61;71.68;102862.06;5000663;28;20036;-76
2022/10/06 09:14:20;;;;;;;10.85;1.70;;;;;;;12.66;71.58;102867.28;5000889;28;20069;-75
2022/10/06 09:16:50;;;;;;;7.63;1.40;;;;;;;12.68;71.12;102879.47;5003511;28;20100;-75
2022/10/06 09:19:31;;;;;;;11.13;1.45;;;;;;;12.72;71.29;102877.72;5001051;28;20037;-76
2022/10/06 09:21:58;;;;;;;8.45;1.25;;;;;;;12.78;72.69;102876.81;4983972;28;20030;-76
2022/10/06 09:24:33;;;;;;;9.18;1.60;;;;;;;12.81;71.21;102882.91;4985042;28;20034;-76
2022/10/06 09:26:58;;;;;;;8.55;1.25;;;;;;;12.86;70.39;102885.53;5000748;28;20064;-75
2022/10/06 09:29:26;;;;;;;10.63;1.63;;;;;;;12.89;70.87;102885.53;5001827;28;20112;-76
2022/10/06 09:31:52;;;;;;;9.07;1.40;;;;;;;12.95;69.86;102884.63;5001136;28;20095;-75
2022/10/06 09:34:38;;;;;;;13.25;1.70;;;;;;;13.00;70.83;102881.13;4999687;28;20478;-75
2022/10/06 09:37:09;;;;;;;10.65;1.33;;;;;;;13.03;69.09;102881.13;5000175;28;20421;-76
2022/10/06 09:39:38;;;;;;;12.68;1.75;;;;;;;13.08;69.20;102886.34;5001320;28;20057;-76
2022/10/06 09:42:09;;;;;;;8.90;1.40;;;;;;;13.13;68.95;102892.41;5003231;28;20113;-76
2022/10/06 09:44:51;;;;;;;13.75;1.95;;;;;;;13.17;69.31;102888.03;5000996;28;20049;-76
2022/10/06 09:47:31;;;;;;;;;;;;;;;13.22;70.70;102891.53;5003563;28;20050;-75
2022/10/06 09:50:13;;;;;;;8.32;1.40;;;;;;;13.29;69.36;102897.59;5003282;28;19925;-75
2022/10/06 09:52:40;;;;;;;8.13;1.10;;;;;;;13.33;68.11;102892.34;5005492;28;20113;-75
2022/10/06 09:55:14;;;;;;;9.25;1.35;;;;;;;13.40;67.88;102890.59;5003724;28;20026;-75
2022/10/06 09:57:49;;;;;;;8.45;1.42;;;;;;;13.47;68.10;102892.31;5004574;28;20084;-75
2022/10/06 10:00:28;;;;;;;12.38;1.30;;;;;;;13.53;67.88;102898.38;5003444;28;20030;-75
2022/10/06 10:02:59;;;;;;;9.38;1.70;;;;;;;13.58;67.53;102899.22;5006437;28;20041;-75
2022/10/06 10:05:28;;;;;;;11.63;1.30;;;;;;;13.65;67.60;102893.09;5004931;28;20034;-76
2022/10/06 10:08:18;;;;;;;8.88;1.45;;;;;;;13.73;67.46;102893.91;5005242;28;20041;-76
2022/10/06 10:10:43;;;;;;;6.28;1.35;;;;;;;13.78;65.92;102892.13;5005565;28;20048;-76
2022/10/06 10:13:23;;;;;;;7.22;1.40;;;;;;;13.88;67.03;102899.91;5005928;28;20030;-76
2022/10/06 10:15:59;;;;;;;8.45;1.67;;;;;;;13.92;66.22;102899.88;4987988;28;20072;-75
2022/10/06 10:18:29;;;;;;;6.38;1.30;;;;;;;13.96;65.09;102895.50;5004760;28;20445;-75
2022/10/06 10:21:07;;;;;;;7.55;1.10;;;;;;;13.99;65.79;102899.84;5005261;28;20025;-75
2022/10/06 10:23:38;;;;;;;10.00;1.60;;;;;;;14.01;64.50;102904.19;5004496;28;20038;-76
2022/10/06 10:26:11;;;;;;;6.40;1.20;;;;;;;14.03;65.09;102902.41;5004739;28;20087;-75
2022/10/06 10:28:55;;;;;;;5.38;1.10;;;;;;;14.06;64.36;102905.03;5002548;28;20040;-75
2022/10/06 10:31:37;;;;;;;9.18;1.63;;;;;;;14.08;65.09;102903.25;4990328;28;20053;-76
2022/10/06 10:34:30;;;;;;;6.80;1.30;;;;;;;14.10;65.63;102904.13;5004233;28;20041;-75
2022/10/06 10:37:02;;;;;;;7.75;1.13;;;;;;;14.16;64.14;102900.59;5004187;28;20021;-75
2022/10/06 10:39:35;;;;;;;7.70;1.33;;;;;;;14.21;62.95;102905.78;5004385;28;20844;-76
2022/10/06 10:42:10;;;;;;;8.98;1.23;;;;;;;14.26;61.55;102906.63;5006406;28;20030;-75
2022/10/06 10:44:45;;;;;;;7.45;1.23;;;;;;;14.23;62.33;102910.16;5005527;28;20033;-75
2022/10/06 10:47:24;;;;;;;10.70;1.25;;;;;;;14.17;62.64;102902.31;4989326;28;20049;-76
2022/10/06 10:50:20;;;;;;;4.53;1.20;;;;;;;14.15;62.79;102900.63;5006888;28;20116;-75
2022/10/06 10:52:49;;;;;;;6.43;1.17;;;;;;;14.09;61.04;102899.78;5005592;28;20030;-76
2022/10/06 10:55:25;;;;;;;5.82;1.13;;;;;;;14.06;61.09;102906.78;5006179;28;20048;-75
2022/10/06 10:57:55;;;;;;;6.05;1.20;;;;;;;14.00;60.60;102905.09;5004008;28;20030;-75
2022/10/06 11:00:26;;;;;;;5.88;1.20;;;;;;;13.97;60.78;102907.72;5003628;28;20095;-76
2022/10/06 11:02:55;;;;;;;7.20;1.13;;;;;;;13.96;61.54;102905.97;5003759;28;20048;-76
2022/10/06 11:05:52;;;;;;;9.65;1.50;;;;;;;13.99;61.44;102905.97;5004147;28;20029;-75
2022/10/06 11:08:21;;;;;;;6.55;1.30;;;;;;;14.08;61.71;102905.03;5003748;28;20123;-76
2022/10/06 11:10:52;;;;;;;7.63;1.30;;;;;;;14.09;60.84;102905.00;5001907;28;20037;-76
2022/10/06 11:13:50;;;;;;;5.32;1.25;;;;;;;14.11;62.17;102918.94;5004930;28;20026;-76
2022/10/06 11:16:46;;;;;;;4.30;1.30;;;;;;;14.09;62.00;102912.84;4987000;28;20042;-76
2022/10/06 11:19:34;;;;;;;9.65;1.63;;;;;;;14.13;61.44;102912.84;5003128;28;20509;-75
2022/10/06 11:22:16;;;;;;;5.88;1.27;;;;;;;14.15;60.23;102906.69;5004823;28;20062;-75
2022/10/06 11:24:51;;;;;;;5.40;1.30;;;;;;;14.19;60.63;102913.66;5002809;28;20030;-75
2022/10/06 11:27:34;;;;;;;4.28;1.10;;;;;;;14.23;61.22;102914.50;5003514;28;20049;-75
2022/10/06 11:30:17;;;;;;;5.05;1.30;;;;;;;14.21;60.58;102917.13;5004616;28;20117;-76
2022/10/06 11:33:07;;;;;;;8.18;1.50;;;;;;;14.24;60.76;102921.47;5006303;28;20104;-76
2022/10/06 11:35:35;;;;;;;7.05;1.45;;;;;;;14.23;58.69;102923.25;5004453;28;20043;-76
2022/10/06 11:38:39;;;;;;;6.63;1.30;;;;;;;14.28;60.66;102917.97;5003791;28;20065;-76
2022/10/06 11:41:08;;;;;;;6.60;1.50;;;;;;;14.36;58.56;102916.13;5004491;28;20029;-75
2022/10/06 11:43:59;;;;;;;7.85;1.60;;;;;;;14.45;60.96;102919.56;5002375;28;20080;-75
2022/10/06 11:46:48;;;;;;;4.85;1.50;;;;;;;14.54;60.66;102914.22;5001678;28;20136;-75
2022/10/06 11:49:28;;;;;;;5.40;1.60;;;;;;;14.61;60.18;102915.03;5001694;28;20034;-76